Time;durP1;ratioP1;P1;durP2;ratioP2;P2;SDS_P1;SDS_P2;PMS_P1;PMS_P2;Temp;Humidity;BMP_temperature;BMP_pressure;BME280_temperature;BME280_humidity;BME280_pressure;Samples;Min_cycle;Max_cycle;Signal;HPM_P1;HPM_P2
2024/03/15 00:01:23;;;;;;;;;9.00;7.50;;;;;15.25;69.36;100432.47;5070879;27;45441;-55
2024/03/15 00:03:48;;;;;;;;;7.50;6.00;;;;;15.26;69.47;100428.03;5069146;27;45759;-54
2024/03/15 00:06:17;;;;;;;;;4.00;4.00;;;;;15.23;69.47;100434.31;5069080;28;45465;-57
2024/03/15 00:08:43;;;;;;;;;8.25;4.50;;;;;15.23;69.81;100430.81;5070449;27;45425;-56
2024/03/15 00:11:08;;;;;;;;;7.75;5.00;;;;;15.21;70.03;100425.66;5075926;28;46598;-56
2024/03/15 00:13:34;;;;;;;;;5.75;4.00;;;;;15.17;70.02;100432.88;5071887;28;45457;-56
2024/03/15 00:15:59;;;;;;;;;5.00;5.00;;;;;15.09;70.15;100429.75;5070275;27;45287;-57
2024/03/15 00:18:24;;;;;;;;;5.00;5.00;;;;;15.11;70.56;100446.34;5062873;27;59964;-57
2024/03/15 00:20:50;;;;;;;;;4.50;4.25;;;;;15.10;70.82;100446.41;5063515;27;74182;-57
2024/03/15 00:23:16;;;;;;;;;4.00;4.00;;;;;15.06;71.23;100445.72;5068493;27;71136;-57
2024/03/15 00:25:41;;;;;;;;;5.00;5.00;;;;;15.05;71.34;100443.16;5067424;28;45530;-56
2024/03/15 00:28:06;;;;;;;;;5.50;4.00;;;;;15.00;71.53;100446.88;5069358;28;69278;-57
2024/03/15 00:30:32;;;;;;;;;8.00;5.00;;;;;14.95;71.63;100443.63;5066713;28;64606;-56
2024/03/15 00:32:57;;;;;;;;;7.75;5.00;;;;;14.96;71.95;100453.25;5087373;27;45526;-55
2024/03/15 00:35:23;;;;;;;;;5.00;5.00;;;;;14.98;72.11;100447.91;5066952;27;45265;-59
2024/03/15 00:37:48;;;;;;;;;5.00;5.00;;;;;14.97;71.98;100451.44;5065587;27;45221;-57
2024/03/15 00:40:14;;;;;;;;;5.75;5.50;;;;;14.97;71.88;100446.19;5087407;27;77591;-57
2024/03/15 00:42:40;;;;;;;;;6.00;5.00;;;;;14.94;72.40;100446.31;5058167;27;68260;-57
2024/03/15 00:45:05;;;;;;;;;5.00;4.00;;;;;14.92;72.17;100453.47;5073667;27;45509;-58
2024/03/15 00:47:31;;;;;;;;;4.00;3.50;;;;;14.91;72.61;100457.00;5072481;27;45410;-57
2024/03/15 00:49:56;;;;;;;;;3.50;3.50;;;;;14.88;72.37;100455.41;5065562;27;63810;-56
2024/03/15 00:52:21;;;;;;;;;4.50;4.50;;;;;14.87;72.97;100453.69;5067761;27;45454;-55
2024/03/15 00:54:47;;;;;;;;;7.00;5.00;;;;;14.87;73.07;100445.78;5069540;28;45810;-55
2024/03/15 00:57:13;;;;;;;;;5.00;5.00;;;;;14.85;73.08;100455.53;5076550;27;45565;-55
2024/03/15 00:59:39;;;;;;;;;3.50;3.50;;;;;14.82;73.23;100445.19;5064706;27;46311;-56
2024/03/15 01:02:05;;;;;;;;;5.25;5.25;;;;;14.79;73.43;100446.16;5069196;28;45602;-56
2024/03/15 01:04:30;;;;;;;;;7.75;5.00;;;;;14.78;73.60;100455.00;5064760;28;45534;-56
2024/03/15 01:06:55;;;;;;;;;6.00;5.25;;;;;14.78;73.36;100455.00;5065015;27;45435;-56
2024/03/15 01:09:21;;;;;;;;;4.50;3.00;;;;;14.78;74.10;100452.38;5064376;27;70498;-55
2024/03/15 01:11:46;;;;;;;;;5.75;4.50;;;;;14.78;73.53;100430.44;5069027;28;46286;-56
2024/03/15 01:14:11;;;;;;;;;4.00;4.00;;;;;14.75;73.82;100443.75;5075349;27;45385;-55
2024/03/15 01:16:37;;;;;;;;;3.00;3.00;;;;;14.72;74.33;100443.91;5067362;27;73250;-55
2024/03/15 01:19:04;;;;;;;;;4.00;4.00;;;;;14.71;74.62;100453.56;5067898;27;46034;-52
2024/03/15 01:21:29;;;;;;;;;3.00;3.00;;;;;14.74;74.30;100453.44;5080568;27;45426;-53
2024/03/15 01:23:55;;;;;;;;;5.00;3.50;;;;;14.76;74.84;100448.94;5074522;27;45221;-54
2024/03/15 01:26:20;;;;;;;;;2.50;2.50;;;;;14.77;74.10;100447.19;5073703;27;45577;-54
2024/03/15 01:28:46;;;;;;;;;3.50;3.25;;;;;14.76;74.62;100445.47;5065720;28;75604;-55
2024/03/15 01:31:11;;;;;;;;;5.00;3.00;;;;;14.75;74.62;100447.25;5073261;27;45553;-53
2024/03/15 01:33:36;;;;;;;;;3.25;3.25;;;;;14.76;74.84;100441.03;5090200;27;47016;-56
2024/03/15 01:36:02;;;;;;;;;2.25;2.25;;;;;14.77;74.88;100434.00;5070271;27;71826;-56
2024/03/15 01:38:29;;;;;;;;;6.00;3.00;;;;;14.76;75.04;100438.41;5071109;27;45532;-56
2024/03/15 01:40:54;;;;;;;;;4.25;3.00;;;;;14.75;75.05;100425.31;5071127;28;45434;-57
2024/03/15 01:43:20;;;;;;;;;2.00;2.00;;;;;14.77;75.27;100428.75;5069947;27;68574;-56
2024/03/15 01:45:45;;;;;;;;;3.50;3.00;;;;;14.77;74.92;100429.59;5075497;27;69865;-55
2024/03/15 01:48:11;;;;;;;;;4.00;2.00;;;;;14.77;75.63;100429.59;5077348;27;45492;-57
2024/03/15 01:50:37;;;;;;;;;4.00;4.00;;;;;14.75;75.19;100434.09;5077328;28;45459;-55
2024/03/15 01:53:03;;;;;;;;;5.50;3.00;;;;;14.76;75.54;100435.75;5070618;27;45289;-53
2024/03/15 01:55:28;;;;;;;;;4.50;3.00;;;;;14.76;75.61;100434.91;5076027;27;63037;-55
2024/03/15 01:57:54;;;;;;;;;4.00;4.00;;;;;14.77;75.76;100426.94;5071158;27;74534;-56
2024/03/15 02:00:19;;;;;;;;;3.00;1.25;;;;;14.76;75.95;100421.75;5071194;27;45424;-55
2024/03/15 02:02:44;;;;;;;;;2.50;2.00;;;;;14.76;76.11;100417.31;5074396;27;69171;-55
2024/03/15 02:05:14;;;;;;;;;4.25;3.00;;;;;14.77;75.92;100413.78;5062819;27;45402;-57
2024/03/15 02:07:39;;;;;;;;;4.00;2.00;;;;;14.76;75.96;100414.69;5070980;27;46861;-57
2024/03/15 02:10:13;;;;;;;;;4.25;3.00;;;;;14.79;75.74;100419.81;5072909;27;72906;-56
2024/03/15 02:12:39;;;;;;;;;1.25;1.00;;;;;14.81;76.29;100417.13;5070562;28;45488;-55
2024/03/15 02:15:05;;;;;;;;;4.00;2.00;;;;;14.79;75.55;100422.44;5073439;27;45584;-53
2024/03/15 02:17:32;;;;;;;;;5.25;2.50;;;;;14.79;76.23;100424.25;5076969;28;46387;-52
2024/03/15 02:19:58;;;;;;;;;3.50;2.50;;;;;14.78;76.28;100422.53;5069072;27;45768;-54
2024/03/15 02:22:23;;;;;;;;;2.00;2.00;;;;;14.78;76.56;100422.53;5093737;27;45430;-54
2024/03/15 02:24:48;;;;;;;;;2.00;2.00;;;;;14.76;76.05;100421.75;5069454;27;45410;-56
2024/03/15 02:27:14;;;;;;;;;3.00;2.00;;;;;14.74;76.85;100427.09;5074620;27;74574;-57
2024/03/15 02:29:42;;;;;;;;;2.50;2.50;;;;;14.71;76.51;100416.69;5067870;27;72499;-55
2024/03/15 02:32:08;;;;;;;;;4.75;2.50;;;;;14.72;76.86;100420.22;5073283;27;45248;-55
2024/03/15 02:34:34;;;;;;;;;3.00;3.00;;;;;14.69;77.00;100423.81;5064791;27;45512;-53
2024/03/15 02:37:00;;;;;;;;;2.25;2.25;;;;;14.68;77.13;100421.25;5075970;27;46052;-56
2024/03/15 02:39:26;;;;;;;;;3.00;2.75;;;;;14.68;77.33;100424.78;5067854;28;45570;-56
2024/03/15 02:41:51;;;;;;;;;2.75;2.75;;;;;14.68;77.43;100426.53;5068284;27;45347;-56
2024/03/15 02:44:17;;;;;;;;;3.00;3.00;;;;;14.68;77.30;100435.31;5073263;27;61556;-55
2024/03/15 02:46:42;;;;;;;;;4.00;3.50;;;;;14.67;77.59;100432.75;5063154;28;48834;-57
2024/03/15 02:49:08;;;;;;;;;3.50;3.50;;;;;14.68;77.57;100434.44;5069736;27;53086;-56
2024/03/15 02:51:34;;;;;;;;;3.50;3.50;;;;;14.69;77.75;100438.78;5070316;27;45364;-57
2024/03/15 02:53:59;;;;;;;;;3.00;2.75;;;;;14.68;78.17;100435.31;5066108;28;45581;-55
2024/03/15 02:56:25;;;;;;;;;4.75;2.00;;;;;14.68;77.95;100435.31;5071294;27;75509;-56
2024/03/15 02:58:50;;;;;;;;;3.00;2.25;;;;;14.70;78.14;100430.81;5073342;27;45504;-57
2024/03/15 03:01:16;;;;;;;;;2.00;2.00;;;;;14.70;78.16;100440.50;5074405;27;45639;-54
2024/03/15 03:03:41;;;;;;;;;2.00;2.00;;;;;14.70;78.39;100441.34;5067723;27;45665;-56
2024/03/15 03:06:07;;;;;;;;;3.25;3.00;;;;;14.71;78.19;100436.94;5072266;28;45965;-54
2024/03/15 03:08:36;;;;;;;;;2.75;2.00;;;;;14.71;78.40;100439.56;5072565;27;45424;-56
2024/03/15 03:11:06;;;;;;;;;4.75;2.00;;;;;14.71;78.72;100439.56;5079605;27;45441;-55
2024/03/15 03:13:35;;;;;;;;;3.00;2.00;;;;;14.74;78.72;100440.25;5073801;27;45358;-56
2024/03/15 03:16:00;;;;;;;;;2.00;2.00;;;;;14.68;78.98;100432.69;5064314;27;45563;-55
2024/03/15 03:18:26;;;;;;;;;2.00;2.00;;;;;14.70;78.85;100443.97;5062512;27;45261;-56
2024/03/15 03:20:51;;;;;;;;;2.00;2.00;;;;;14.66;79.15;100431.91;5070663;27;45378;-54
2024/03/15 03:23:17;;;;;;;;;2.75;2.00;;;;;14.63;79.27;100437.31;5064221;27;68174;-57
2024/03/15 03:25:42;;;;;;;;;2.50;1.25;;;;;14.63;79.29;100444.38;5077356;27;73340;-57
2024/03/15 03:28:07;;;;;;;;;3.00;1.00;;;;;14.63;79.31;100447.84;5065081;27;64051;-54
2024/03/15 03:30:33;;;;;;;;;4.00;3.00;;;;;14.63;79.95;100445.22;5066400;28;63171;-55
2024/03/15 03:32:58;;;;;;;;;3.75;3.00;;;;;14.65;79.76;100435.44;5069405;27;45514;-57
2024/03/15 03:35:24;;;;;;;;;3.25;2.50;;;;;14.65;79.53;100434.59;5070548;27;73387;-56
2024/03/15 03:37:49;;;;;;;;;2.00;2.00;;;;;14.61;79.49;100445.28;5061889;27;45379;-54
2024/03/15 03:40:14;;;;;;;;;1.25;1.25;;;;;14.59;80.18;100449.78;5053577;27;65228;-57
2024/03/15 03:42:43;;;;;;;;;2.00;2.00;;;;;14.58;79.68;100452.47;5058839;28;45973;-56
2024/03/15 03:45:15;;;;;;;;;3.00;2.00;;;;;14.58;80.14;100453.31;5072731;27;45500;-56
2024/03/15 03:47:43;;;;;;;;;4.00;1.50;;;;;14.57;80.45;100453.38;5070201;27;45884;-57
2024/03/15 03:50:10;;;;;;;;;2.00;1.25;;;;;14.58;80.31;100457.75;5070131;27;45425;-54
2024/03/15 03:52:35;;;;;;;;;3.25;3.25;;;;;14.58;79.93;100457.75;5071481;28;45190;-53
2024/03/15 03:55:00;;;;;;;;;2.50;2.25;;;;;14.60;80.37;100455.88;5066103;27;62431;-54
2024/03/15 03:57:28;;;;;;;;;2.00;2.00;;;;;14.61;80.41;100458.44;5071272;27;45382;-53
2024/03/15 03:59:54;;;;;;;;;1.75;1.75;;;;;14.61;80.18;100458.44;5073115;27;45763;-58
2024/03/15 04:02:19;;;;;;;;;2.00;2.00;;;;;14.63;80.34;100470.72;5070484;27;45607;-56
2024/03/15 04:04:46;;;;;;;;;2.00;2.00;;;;;14.64;80.20;100467.97;5067160;28;75700;-61
2024/03/15 04:07:11;;;;;;;;;3.00;2.00;;;;;14.67;79.90;100464.34;5071981;27;46126;-56
2024/03/15 04:09:36;;;;;;;;;2.75;2.00;;;;;14.68;79.78;100458.13;5066625;27;45690;-56
2024/03/15 04:12:02;;;;;;;;;2.00;2.00;;;;;14.70;80.17;100469.47;5078032;27;71967;-57
2024/03/15 04:14:27;;;;;;;;;2.00;2.00;;;;;14.70;79.94;100466.84;5068137;28;45557;-57
2024/03/15 04:16:54;;;;;;;;;2.25;2.00;;;;;14.71;80.07;100474.66;5067990;27;56438;-56
2024/03/15 04:19:20;;;;;;;;;2.75;2.00;;;;;14.71;79.98;100476.44;5066999;27;45510;-56
2024/03/15 04:21:45;;;;;;;;;2.25;1.50;;;;;14.71;80.01;100476.44;5076491;27;45556;-55
2024/03/15 04:24:11;;;;;;;;;3.00;2.00;;;;;14.70;80.02;100475.59;5064553;28;46367;-56
2024/03/15 04:26:37;;;;;;;;;2.25;2.00;;;;;14.71;80.05;100473.81;5072958;27;45418;-56
2024/03/15 04:29:02;;;;;;;;;3.25;2.00;;;;;14.71;80.07;100473.81;5074615;28;63919;-56
2024/03/15 04:31:30;;;;;;;;;1.50;1.50;;;;;14.69;79.78;100468.59;5082483;27;45300;-57
2024/03/15 04:33:56;;;;;;;;;2.25;2.25;;;;;14.73;80.04;100475.44;5069672;28;46744;-56
2024/03/15 04:36:24;;;;;;;;;1.50;1.00;;;;;14.75;79.60;100477.97;5067019;27;45442;-56
2024/03/15 04:38:53;;;;;;;;;1.25;1.25;;;;;14.75;79.78;100476.22;5071477;27;45402;-55
2024/03/15 04:41:21;;;;;;;;;2.00;1.25;;;;;14.77;79.85;100473.53;5074591;28;45449;-56
2024/03/15 04:43:47;;;;;;;;;1.75;1.00;;;;;14.78;79.67;100488.38;5065645;27;46145;-56
2024/03/15 04:46:13;;;;;;;;;3.00;2.00;;;;;14.80;79.79;100479.50;5078111;27;45430;-56
2024/03/15 04:48:38;;;;;;;;;1.25;1.00;;;;;14.81;79.52;100473.28;5073972;27;45250;-55
2024/03/15 04:51:03;;;;;;;;;5.00;2.00;;;;;14.83;79.62;100470.56;5074619;27;46476;-56
2024/03/15 04:53:29;;;;;;;;;3.00;1.25;;;;;14.85;79.75;100479.25;5075903;27;74537;-56
2024/03/15 04:55:54;;;;;;;;;2.00;2.00;;;;;14.87;79.88;100477.38;5067549;28;54882;-52
2024/03/15 04:58:21;;;;;;;;;1.50;1.50;;;;;14.84;79.84;100477.56;5068989;27;45307;-54
2024/03/15 05:00:47;;;;;;;;;1.25;1.25;;;;;14.86;79.99;100482.75;5065989;27;45488;-56
2024/03/15 05:03:12;;;;;;;;;5.75;1.00;;;;;14.86;79.83;100493.31;5068318;27;45640;-56
2024/03/15 05:05:38;;;;;;;;;2.00;2.00;;;;;14.84;79.78;100496.00;5085889;27;45373;-58
2024/03/15 05:08:05;;;;;;;;;2.00;2.00;;;;;14.83;79.77;100491.66;5074502;27;45472;-57
2024/03/15 05:10:30;;;;;;;;;4.00;2.00;;;;;14.81;79.71;100485.59;5068644;27;45520;-57
2024/03/15 05:12:56;;;;;;;;;5.75;3.00;;;;;14.81;79.75;100485.59;5077784;27;46218;-55
2024/03/15 05:15:22;;;;;;;;;1.50;1.50;;;;;14.79;79.93;100487.47;5067972;28;45866;-50
2024/03/15 05:17:47;;;;;;;;;2.75;2.75;;;;;14.79;79.70;100482.19;5074339;27;68818;-51
2024/03/15 05:20:13;;;;;;;;;1.50;1.00;;;;;14.79;79.58;100483.03;5068879;27;45477;-54
2024/03/15 05:22:39;;;;;;;;;2.00;2.00;;;;;14.80;79.51;100478.63;5073422;27;75655;-57
2024/03/15 05:25:08;;;;;;;;;2.00;2.00;;;;;14.78;79.50;100486.63;5067260;28;45374;-55
2024/03/15 05:27:34;;;;;;;;;2.50;1.00;;;;;14.79;79.59;100490.09;5070873;27;45280;-57
2024/03/15 05:30:00;;;;;;;;;2.25;1.50;;;;;14.77;79.54;100487.53;5073981;27;73142;-55
2024/03/15 05:32:28;;;;;;;;;1.75;1.00;;;;;14.74;79.88;100485.03;5073211;27;46213;-56
2024/03/15 05:34:54;;;;;;;;;3.00;2.00;;;;;14.72;79.41;100488.69;5070998;27;45301;-56
2024/03/15 05:37:19;;;;;;;;;2.00;2.00;;;;;14.74;79.69;100497.38;5065719;28;46092;-54
2024/03/15 05:39:45;;;;;;;;;3.00;2.00;;;;;14.75;79.52;100496.41;5071390;27;45498;-56
2024/03/15 05:42:10;;;;;;;;;2.25;2.00;;;;;14.74;79.67;100497.38;5068426;27;45301;-54
2024/03/15 05:44:36;;;;;;;;;2.00;2.00;;;;;14.74;79.22;100498.22;5069714;27;45318;-55
2024/03/15 05:47:01;;;;;;;;;4.00;1.50;;;;;14.75;79.20;100497.28;5070121;27;45423;-57
2024/03/15 05:49:26;;;;;;;;;2.00;2.00;;;;;14.76;79.38;100498.16;5072568;27;71006;-56
2024/03/15 05:51:52;;;;;;;;;3.75;2.00;;;;;14.75;78.94;100502.56;5070804;27;68943;-57
2024/03/15 05:54:17;;;;;;;;;1.75;1.75;;;;;14.76;79.07;100498.16;5061017;28;45424;-55
2024/03/15 05:56:43;;;;;;;;;1.75;1.75;;;;;14.78;79.03;100502.44;5067008;27;67844;-55
2024/03/15 05:59:11;;;;;;;;;2.00;1.00;;;;;14.78;78.73;100499.78;5064753;27;45550;-55
2024/03/15 06:01:36;;;;;;;;;2.00;2.00;;;;;14.78;78.69;100502.44;5076705;28;45360;-57
2024/03/15 06:04:02;;;;;;;;;3.25;2.25;;;;;14.77;78.88;100503.34;5075933;27;45505;-55
2024/03/15 06:06:27;;;;;;;;;2.25;2.25;;;;;14.77;78.46;100503.34;5067488;27;69183;-57
2024/03/15 06:08:53;;;;;;;;;0.75;0.75;;;;;14.75;78.19;100502.56;5072647;27;45685;-57
2024/03/15 06:11:20;;;;;;;;;1.00;1.00;;;;;14.74;78.64;100502.63;5073279;27;46253;-56
2024/03/15 06:13:46;;;;;;;;;3.00;3.00;;;;;14.71;78.59;100506.25;5077433;27;45643;-57
2024/03/15 06:16:16;;;;;;;;;3.00;1.75;;;;;14.70;78.44;100509.84;5066233;27;45446;-57
2024/03/15 06:18:41;;;;;;;;;0.75;0.75;;;;;14.69;78.74;100521.28;5077103;27;45300;-57
2024/03/15 06:21:09;;;;;;;;;2.25;1.75;;;;;14.67;78.66;100519.66;5069096;27;45533;-56
2024/03/15 06:23:34;;;;;;;;;4.00;2.00;;;;;14.67;78.60;100533.69;5070310;27;45417;-57
2024/03/15 06:26:02;;;;;;;;;3.75;3.00;;;;;14.68;78.73;100535.41;5076019;27;45378;-55
2024/03/15 06:28:27;;;;;;;;;2.75;1.00;;;;;14.69;78.44;100537.09;5074316;28;45271;-56
2024/03/15 06:30:53;;;;;;;;;2.00;2.00;;;;;14.69;78.32;100537.09;5071565;27;45369;-55
2024/03/15 06:33:19;;;;;;;;;3.25;3.25;;;;;14.69;78.12;100542.34;5072694;27;45430;-57
2024/03/15 06:35:51;;;;;;;;;2.00;2.00;;;;;14.69;78.14;100546.78;5068862;27;45360;-55
2024/03/15 06:38:50;;;;;;;;;2.00;1.00;;;;;14.69;78.14;100541.50;5062398;27;45422;-55
2024/03/15 06:44:00;;;;;;;;;2.00;1.00;;;;;14.66;77.89;100541.66;5066055;27;45196;-56
2024/03/15 06:46:29;;;;;;;;;2.00;1.00;;;;;14.63;77.62;100534.75;5077496;27;45473;-58
2024/03/15 06:48:56;;;;;;;;;1.00;0.00;;;;;14.68;77.90;100542.41;5070395;28;45311;-55
2024/03/15 06:54:09;;;;;;;;;1.00;1.00;;;;;14.69;77.62;100545.00;5073020;27;45387;-56
2024/03/15 06:56:43;;;;;;;;;0.75;0.75;;;;;14.67;77.08;100538.94;5072086;27;45489;-57
2024/03/15 06:59:09;;;;;;;;;4.00;1.00;;;;;14.65;77.39;100553.13;5077013;27;46263;-55
2024/03/15 07:01:35;;;;;;;;;2.50;0.50;;;;;14.61;77.45;100545.34;5075558;27;46201;-56
2024/03/15 07:04:00;;;;;;;;;0.50;0.50;;;;;14.61;77.10;100553.25;5063207;28;45361;-57
2024/03/15 07:06:27;;;;;;;;;1.50;1.00;;;;;14.61;76.93;100553.25;5069784;28;68505;-57
2024/03/15 07:08:53;;;;;;;;;1.00;1.00;;;;;14.64;76.93;100551.41;5060794;27;45644;-57
2024/03/15 07:11:18;;;;;;;;;4.50;1.00;;;;;14.66;76.82;100553.06;5068956;28;63373;-55
2024/03/15 07:13:43;;;;;;;;;2.75;0.25;;;;;14.67;76.62;100554.75;5072648;28;45311;-56
2024/03/15 07:16:09;;;;;;;;;1.00;1.00;;;;;14.69;76.63;100557.31;5069553;28;45346;-56
2024/03/15 07:18:34;;;;;;;;;1.75;1.00;;;;;14.69;76.49;100558.16;5073743;27;66812;-55
2024/03/15 07:20:59;;;;;;;;;2.25;1.00;;;;;14.73;75.93;100556.22;5073271;27;45358;-55
2024/03/15 07:23:27;;;;;;;;;1.50;1.00;;;;;14.74;76.18;100560.59;5064107;28;45496;-56
2024/03/15 07:25:53;;;;;;;;;2.50;0.00;;;;;14.76;75.76;100567.47;5062992;28;45436;-55
2024/03/15 07:28:21;;;;;;;;;3.25;1.00;;;;;14.80;75.69;100570.81;5063288;28;45493;-55
2024/03/15 07:30:55;;;;;;;;;1.00;1.00;;;;;14.84;75.77;100579.44;5140704;27;45495;-57
2024/03/15 07:33:20;;;;;;;;;3.25;1.00;;;;;14.86;75.46;100573.19;5086146;27;45670;-56
2024/03/15 07:35:48;;;;;;;;;0.75;0.00;;;;;14.93;75.08;100573.75;5093448;27;68156;-55
2024/03/15 07:38:15;;;;;;;;;1.75;1.00;;;;;14.97;75.15;100568.25;5082911;27;45160;-58
2024/03/15 07:40:41;;;;;;;;;4.75;1.00;;;;;15.08;74.91;100572.16;5106593;27;46273;-52
2024/03/15 07:43:08;;;;;;;;;3.00;1.00;;;;;15.15;74.62;100582.31;5094586;27;45455;-61
2024/03/15 07:45:34;;;;;;;;;2.00;1.00;;;;;15.17;74.00;100583.13;5092796;27;45473;-59
2024/03/15 07:47:59;;;;;;;;;1.00;1.00;;;;;15.14;73.77;100580.63;5089117;27;51282;-58
2024/03/15 07:50:27;;;;;;;;;4.00;4.00;;;;;15.15;74.16;100582.31;5071724;27;45576;-61
2024/03/15 07:52:53;;;;;;;;;1.75;1.00;;;;;15.15;73.65;100587.59;5088260;27;45290;-62
2024/03/15 07:55:20;;;;;;;;;3.50;1.50;;;;;15.15;73.53;100578.81;5095013;27;45207;-61
2024/03/15 07:57:46;;;;;;;;;4.75;1.00;;;;;15.15;73.75;100589.38;5087910;27;45643;-61
2024/03/15 08:00:14;;;;;;;;;2.75;2.00;;;;;15.12;73.38;100586.88;5107541;27;48591;-61
2024/03/15 08:02:40;;;;;;;;;2.25;1.75;;;;;15.13;73.44;100592.06;5089982;27;45561;-59
2024/03/15 08:05:06;;;;;;;;;4.75;1.00;;;;;15.18;73.26;100589.22;5094949;27;46610;-60
2024/03/15 08:07:32;;;;;;;;;3.50;2.50;;;;;15.24;73.29;100585.44;5094537;27;45662;-58
2024/03/15 08:09:57;;;;;;;;;2.00;1.00;;;;;15.27;73.33;100580.88;5091222;27;45355;-57
2024/03/15 08:12:24;;;;;;;;;3.75;1.00;;;;;15.31;72.76;100582.41;5087521;27;45329;-58
2024/03/15 08:14:50;;;;;;;;;1.75;1.00;;;;;15.38;72.68;100586.44;5095041;27;45402;-66
2024/03/15 08:17:15;;;;;;;;;3.00;2.00;;;;;15.45;72.53;100592.28;5075485;27;45532;-59
2024/03/15 08:19:40;;;;;;;;;5.00;2.00;;;;;15.52;72.56;100584.94;5093220;27;65850;-60
2024/03/15 08:22:07;;;;;;;;;1.00;0.50;;;;;15.56;72.42;100589.09;5092776;27;45394;-64
2024/03/15 08:24:33;;;;;;;;;1.00;1.00;;;;;15.65;72.10;100587.78;5094694;27;45367;-60
2024/03/15 08:26:58;;;;;;;;;3.75;2.00;;;;;15.66;72.15;100587.72;5086772;27;62856;-59
2024/03/15 08:29:23;;;;;;;;;5.25;2.25;;;;;15.75;72.18;100586.44;5091486;27;75305;-62
2024/03/15 08:31:49;;;;;;;;;6.50;2.50;;;;;15.85;72.19;100586.84;5086653;27;65530;-60
2024/03/15 08:34:15;;;;;;;;;3.00;1.00;;;;;15.92;71.99;100596.97;5089877;27;45374;-59
2024/03/15 08:36:40;;;;;;;;;2.50;1.00;;;;;16.00;71.66;100601.84;5094353;27;45522;-61
2024/03/15 08:39:12;;;;;;;;;2.50;1.00;;;;;16.04;71.24;100603.44;5093683;27;47852;-59
2024/03/15 08:41:37;;;;;;;;;2.25;1.75;;;;;16.07;72.25;100608.53;5079290;27;45533;-65
2024/03/15 08:44:03;;;;;;;;;2.00;1.00;;;;;16.02;72.32;100618.47;5076295;27;45336;-63
2024/03/15 08:46:30;;;;;;;;;0.25;0.00;;;;;15.94;73.25;100616.22;5078896;27;45403;-61
2024/03/15 08:48:56;;;;;;;;;3.25;2.00;;;;;15.85;73.19;100616.69;5075369;27;45999;-62
2024/03/15 08:51:22;;;;;;;;;1.00;0.75;;;;;15.86;74.11;100614.91;5073235;27;45426;-63
2024/03/15 08:53:48;;;;;;;;;3.25;1.50;;;;;15.94;73.53;100616.22;5089478;27;45425;-63
2024/03/15 08:56:13;;;;;;;;;2.00;0.50;;;;;16.02;73.53;100610.53;5076428;27;45336;-63
2024/03/15 08:58:39;;;;;;;;;4.00;1.75;;;;;16.03;72.79;100614.91;5081830;27;45464;-63
2024/03/15 09:01:04;;;;;;;;;17.25;14.75;;;;;15.97;72.42;100619.63;5074975;28;45350;-62
2024/03/15 09:03:33;;;;;;;;;4.25;2.00;;;;;15.91;72.49;100624.28;5077060;28;45306;-62
2024/03/15 09:06:06;;;;;;;;;5.25;2.00;;;;;15.96;72.62;100612.66;5080852;28;45420;-64
2024/03/15 09:08:35;;;;;;;;;4.25;1.50;;;;;16.03;72.23;100622.81;5071011;28;45652;-63
2024/03/15 09:11:01;;;;;;;;;4.75;1.00;;;;;16.17;72.55;100629.19;5088854;27;45445;-62
2024/03/15 09:13:29;;;;;;;;;4.50;1.25;;;;;16.30;71.88;100622.31;5097741;27;45389;-61
2024/03/15 09:15:56;;;;;;;;;1.75;1.50;;;;;16.37;71.36;100612.28;5076267;27;45225;-65
2024/03/15 09:18:22;;;;;;;;;4.00;1.75;;;;;16.42;71.00;100626.94;5070531;27;46266;-61
2024/03/15 09:20:48;;;;;;;;;2.50;1.25;;;;;16.50;70.63;100631.81;5072688;27;45337;-60
2024/03/15 09:23:14;;;;;;;;;38.00;31.75;;;;;16.54;70.48;100620.16;5077887;27;45722;-61
2024/03/15 09:25:42;;;;;;;;;2.50;1.25;;;;;16.55;70.52;100631.56;5079010;27;46238;-55
2024/03/15 09:28:09;;;;;;;;;7.00;2.00;;;;;16.49;70.67;100630.13;5078637;27;45497;-59
2024/03/15 09:30:53;;;;;;;;;1.75;1.25;;;;;16.41;70.99;100633.16;5079566;27;45370;-58
2024/03/15 09:33:18;;;;;;;;;2.25;1.50;;;;;16.36;72.74;100643.13;5072932;28;45300;-61
2024/03/15 09:35:46;;;;;;;;;2.00;1.00;;;;;16.23;73.44;100647.34;5075660;27;45457;-60
2024/03/15 09:38:12;;;;;;;;;4.25;3.00;;;;;16.10;73.89;100652.41;5075579;27;47179;-59
2024/03/15 09:40:38;;;;;;;;;3.75;1.25;;;;;16.03;75.15;100641.28;5077013;27;45354;-61
2024/03/15 09:43:13;;;;;;;;;50.25;38.25;;;;;16.13;75.15;100631.97;5074069;27;45260;-59
2024/03/15 09:45:38;;;;;;;;;3.75;3.00;;;;;16.16;74.99;100628.31;5073412;27;45638;-59
2024/03/15 09:48:13;;;;;;;;;4.00;2.00;;;;;16.18;75.45;100633.50;5076935;27;58073;-59
2024/03/15 09:50:40;;;;;;;;;2.50;2.25;;;;;16.25;75.26;100634.91;5080859;27;45339;-60
2024/03/15 09:53:06;;;;;;;;;5.25;2.00;;;;;16.21;75.29;100639.50;5077813;27;45463;-59
2024/03/15 09:55:32;;;;;;;;;3.00;2.00;;;;;16.23;75.47;100629.69;5070840;27;45423;-59
2024/03/15 09:57:58;;;;;;;;;1.75;1.75;;;;;16.25;75.92;100621.69;5077505;28;45976;-60
2024/03/15 10:00:23;;;;;;;;;3.25;1.50;;;;;16.25;75.95;100633.09;5076668;27;45624;-60
2024/03/15 10:02:51;;;;;;;;;34.00;28.50;;;;;16.24;75.69;100625.28;5083935;27;45338;-60
2024/03/15 10:05:20;;;;;;;;;5.00;2.25;;;;;16.20;76.32;100629.88;5055106;28;45330;-60
2024/03/15 10:07:46;;;;;;;;;2.50;1.25;;;;;16.15;75.77;100618.69;5076641;28;45462;-60
2024/03/15 10:10:11;;;;;;;;;2.25;2.00;;;;;16.18;75.80;100615.88;5070077;28;45357;-62
2024/03/15 10:12:39;;;;;;;;;2.50;2.00;;;;;16.19;75.79;100614.97;5075110;27;55771;-64
2024/03/15 10:15:08;;;;;;;;;4.25;1.25;;;;;16.21;75.44;100618.38;5094271;27;45573;-63
2024/03/15 10:17:35;;;;;;;;;6.75;1.25;;;;;16.22;74.92;100608.66;5074262;28;47073;-62
2024/03/15 10:20:00;;;;;;;;;1.75;1.75;;;;;16.23;74.46;100621.78;5078779;27;45411;-60
2024/03/15 10:22:26;;;;;;;;;5.75;3.00;;;;;16.18;73.84;100615.88;5077573;28;64829;-59
2024/03/15 10:24:52;;;;;;;;;3.75;1.50;;;;;16.09;74.05;100617.22;5079331;27;71137;-60
2024/03/15 10:27:19;;;;;;;;;1.00;1.00;;;;;16.00;73.60;100601.84;5080205;27;45465;-61
2024/03/15 10:29:45;;;;;;;;;3.00;2.00;;;;;16.03;74.36;100614.06;5077661;28;45293;-60
2024/03/15 10:32:10;;;;;;;;;1.50;0.00;;;;;16.18;74.27;100609.75;5077021;27;62279;-59
2024/03/15 10:34:37;;;;;;;;;2.00;2.00;;;;;16.35;73.42;100607.09;5039591;28;45565;-62
2024/03/15 10:37:02;;;;;;;;;5.50;1.75;;;;;16.55;72.76;100627.13;5080044;28;45363;-62
2024/03/15 10:39:28;;;;;;;;;0.75;0.00;;;;;16.70;71.24;100618.38;5076523;28;68136;-62
2024/03/15 10:41:53;;;;;;;;;38.00;27.75;;;;;16.87;70.98;100622.78;5078745;28;45399;-63
2024/03/15 10:44:19;;;;;;;;;10.75;6.25;;;;;17.04;70.47;100624.47;5074267;28;73163;-63
2024/03/15 10:46:46;;;;;;;;;1.75;0.75;;;;;17.21;69.56;100618.25;5073117;27;56226;-63
2024/03/15 10:49:14;;;;;;;;;4.25;2.75;;;;;17.32;69.33;100611.50;5074412;28;59242;-63
2024/03/15 10:51:40;;;;;;;;;4.00;0.75;;;;;17.50;68.08;100599.84;5086396;27;45449;-63
2024/03/15 10:54:06;;;;;;;;;3.00;1.00;;;;;17.59;67.47;100609.06;5064586;28;45509;-62
2024/03/15 10:56:31;;;;;;;;;1.75;1.25;;;;;17.70;67.07;100603.13;5077729;28;45435;-62
2024/03/15 10:58:56;;;;;;;;;24.25;20.25;;;;;17.77;66.06;100618.56;5077114;27;45221;-63
2024/03/15 11:01:23;;;;;;;;;3.75;2.75;;;;;17.82;65.03;100599.75;5074865;28;67072;-63
2024/03/15 11:03:48;;;;;;;;;1.00;0.50;;;;;17.96;64.55;100609.56;5072857;28;45465;-62
2024/03/15 11:06:14;;;;;;;;;1.00;1.00;;;;;18.05;64.04;100605.50;5077165;27;57493;-63
2024/03/15 11:08:40;;;;;;;;;1.50;0.50;;;;;18.10;63.71;100598.16;5072014;27;61321;-64
2024/03/15 11:11:07;;;;;;;;;0.25;0.25;;;;;18.13;63.51;100597.94;5069730;28;45460;-63
2024/03/15 11:13:33;;;;;;;;;2.75;2.00;;;;;18.26;63.70;100601.56;5068413;27;45387;-64
2024/03/15 11:15:59;;;;;;;;;3.00;1.00;;;;;18.37;63.61;100585.00;5094454;27;47053;-69
2024/03/15 11:18:33;;;;;;;;;4.00;2.00;;;;;18.41;62.63;100586.50;5062998;27;45229;-64
2024/03/15 11:20:59;;;;;;;;;1.25;0.75;;;;;18.42;62.13;100588.22;5073932;28;45416;-67
2024/03/15 11:23:25;;;;;;;;;26.75;18.50;;;;;18.52;62.01;100588.47;5080821;27;49342;-64
2024/03/15 11:26:06;;;;;;;;;1.75;1.75;;;;;18.66;61.35;100595.56;5078712;27;45336;-66